KWVI/WVI METAR and TAF weather

Enter ICAO airport designator
Station Type Date Time Source
KWVI METAR 2022/12/04 10:53 UTC NOAA

KWVI 041053Z AUTO 00000KT 10SM OVC014 09/09 A3004 RMK AO2 SLP170 T00890089


Station Type Date Time Source
KWVI Decoded METAR 2022/12/04 10:53 UTC NOAA

WATSONVILLE MUNICIPAL AIRPORT , CA, United States (KWVI) 36-56N 121-47W 43M
Dec 04, 2022 - 05:53 AM EST / 2022.12.04 1053 UTC
Wind: Calm:0
Visibility: 10 mile(s):0
Sky conditions: overcast
Temperature: 48.0 F (8.9 C)
Dew Point: 48.0 F (8.9 C)
Relative Humidity: 100%
Pressure (altimeter): 30.04 in. Hg (1017 hPa)
ob: KWVI 041053Z AUTO 00000KT 10SM OVC014 09/09 A3004 RMK AO2 SLP170 T00890089
cycle: 11

Station Type Date Time Source
KWVI TAF UTC NOAA

Error!

Example: see airport list